createdAt,value
2023-05-07T00:01:54.673Z,100046.03
2023-05-07T00:04:22.887Z,100051.13
2023-05-07T00:06:53.648Z,100056.78
2023-05-07T00:09:21.703Z,100061.47
2023-05-07T00:11:49.796Z,100061.19
2023-05-07T00:14:18.187Z,100054.84
2023-05-07T00:16:46.308Z,100052.50
2023-05-07T00:19:16.553Z,100045.41
2023-05-07T00:21:45.116Z,100057.34
2023-05-07T00:24:14.503Z,100042.50
2023-05-07T00:26:42.779Z,100046.25
2023-05-07T00:29:10.961Z,100049.81
2023-05-07T00:31:39.226Z,100040.97
2023-05-07T00:34:08.090Z,100037.78
2023-05-07T00:36:36.034Z,100031.13
2023-05-07T00:39:04.757Z,100030.81
2023-05-07T00:41:34.387Z,100019.00
2023-05-07T00:44:03.538Z,100013.50
2023-05-07T00:46:35.380Z,100002.38
2023-05-07T00:49:04.072Z,100000.59
2023-05-07T00:51:32.110Z,100000.31
2023-05-07T00:54:01.724Z,100010.16
2023-05-07T00:56:30.032Z,100012.50
2023-05-07T00:59:03.157Z,100010.59
2023-05-07T01:01:31.368Z,100017.75
2023-05-07T01:03:59.888Z,100008.66
2023-05-07T01:06:29.772Z,100017.91
2023-05-07T01:08:58.671Z,100008.69
2023-05-07T01:11:27.032Z,100007.31
2023-05-07T01:13:55.256Z,100003.72
2023-05-07T01:16:25.191Z,100003.75
2023-05-07T01:18:53.394Z,100004.72
2023-05-07T01:21:27.633Z,100005.28
2023-05-07T01:24:00.617Z,100002.25
2023-05-07T01:26:28.974Z,100011.22
2023-05-07T01:28:57.023Z,100013.97
2023-05-07T01:31:25.645Z,100004.97
2023-05-07T01:33:54.200Z,100004.66
2023-05-07T01:36:23.909Z,100006.59
2023-05-07T01:38:53.054Z,99999.44
2023-05-07T01:41:23.111Z,100000.00
2023-05-07T01:43:53.238Z,100008.00
2023-05-07T01:46:21.777Z,100006.31
2023-05-07T01:48:50.237Z,100001.94
2023-05-07T01:51:18.202Z,100003.81
2023-05-07T01:53:48.832Z,100001.94
2023-05-07T01:56:16.806Z,99995.97
2023-05-07T01:58:46.904Z,100003.19
2023-05-07T02:01:15.424Z,100002.22
2023-05-07T02:03:44.832Z,100000.19
2023-05-07T02:06:20.737Z,99998.47
2023-05-07T02:08:49.184Z,99987.50
2023-05-07T02:11:18.063Z,99985.34
2023-05-07T02:13:47.431Z,99992.22
2023-05-07T02:16:15.854Z,99993.66
2023-05-07T02:18:43.811Z,99998.09
2023-05-07T02:21:11.646Z,99997.84
2023-05-07T02:23:39.559Z,99993.25
2023-05-07T02:26:07.452Z,99994.47
2023-05-07T02:28:36.270Z,99987.50
2023-05-07T02:31:07.477Z,99995.19
2023-05-07T02:33:37.569Z,100002.69
2023-05-07T02:36:09.039Z,99996.53
2023-05-07T02:38:40.942Z,100001.88
2023-05-07T02:41:08.989Z,100006.69
2023-05-07T02:43:36.825Z,100005.69
2023-05-07T02:46:05.685Z,99997.59
2023-05-07T02:48:37.537Z,99995.28
2023-05-07T02:51:06.598Z,99992.09
2023-05-07T02:53:36.761Z,99994.06
2023-05-07T02:56:05.233Z,100001.25
2023-05-07T02:58:32.986Z,100003.44
2023-05-07T03:01:02.637Z,99999.44
2023-05-07T03:03:37.762Z,100008.06
2023-05-07T03:06:06.080Z,100001.81
2023-05-07T03:08:34.226Z,100003.38
2023-05-07T03:11:02.151Z,100007.63
2023-05-07T03:13:30.344Z,100001.09
2023-05-07T03:15:58.650Z,100006.91
2023-05-07T03:18:26.818Z,100008.63
2023-05-07T03:20:56.915Z,99994.00
2023-05-07T03:23:25.178Z,99992.25
2023-05-07T03:25:53.291Z,99991.44
2023-05-07T03:28:21.437Z,99993.28
2023-05-07T03:30:55.069Z,99994.06
2023-05-07T03:33:23.166Z,99991.84
2023-05-07T03:35:51.821Z,99983.03
2023-05-07T03:38:25.520Z,99983.84
2023-05-07T03:40:53.688Z,99980.47
2023-05-07T03:43:22.393Z,99981.88
2023-05-07T03:45:57.635Z,99975.97
2023-05-07T03:48:28.170Z,99977.94
2023-05-07T03:50:59.772Z,99975.66
2023-05-07T03:53:33.503Z,99981.56
2023-05-07T03:56:02.086Z,99967.91
2023-05-07T03:58:33.808Z,99970.84
2023-05-07T04:01:06.715Z,99966.56
2023-05-07T04:03:35.009Z,99974.94
2023-05-07T04:06:03.483Z,99981.72
2023-05-07T04:08:34.767Z,99990.31
2023-05-07T04:11:03.895Z,99988.53
2023-05-07T04:13:33.814Z,99995.63
2023-05-07T04:16:04.176Z,100000.19
2023-05-07T04:18:32.681Z,100005.13
2023-05-07T04:21:01.229Z,100006.66
2023-05-07T04:23:29.390Z,100012.78
2023-05-07T04:26:02.067Z,100012.59
2023-05-07T04:28:42.697Z,100017.75
2023-05-07T04:31:10.790Z,100016.34
2023-05-07T04:33:40.199Z,100018.94
2023-05-07T04:36:12.045Z,100019.78
2023-05-07T04:38:48.333Z,100021.88
2023-05-07T04:41:19.069Z,100019.09
2023-05-07T04:43:47.286Z,100018.66
2023-05-07T04:46:17.317Z,100014.69
2023-05-07T04:48:46.423Z,100023.25
2023-05-07T04:51:14.271Z,100022.41
2023-05-07T04:53:42.621Z,100021.31
2023-05-07T04:56:10.730Z,100030.59
2023-05-07T04:58:43.967Z,100024.09
2023-05-07T05:01:13.014Z,100024.25
2023-05-07T05:03:44.972Z,100028.25
2023-05-07T05:06:13.111Z,100029.56
2023-05-07T05:08:43.663Z,100031.78
2023-05-07T05:11:12.215Z,100030.38
2023-05-07T05:13:40.923Z,100031.53
2023-05-07T05:16:15.722Z,100037.31
2023-05-07T05:18:44.172Z,100049.25
2023-05-07T05:21:14.918Z,100047.91
2023-05-07T05:23:45.015Z,100050.31
2023-05-07T05:26:14.485Z,100055.22
2023-05-07T05:28:42.928Z,100060.75
2023-05-07T05:31:11.421Z,100059.34
2023-05-07T05:33:41.141Z,100059.63
2023-05-07T05:36:11.776Z,100060.75
2023-05-07T05:38:40.321Z,100069.44
2023-05-07T05:41:09.770Z,100071.78
2023-05-07T05:43:38.293Z,100066.81
2023-05-07T05:46:07.198Z,100065.81
2023-05-07T05:48:35.544Z,100069.69
2023-05-07T05:51:07.198Z,100071.25
2023-05-07T05:53:35.494Z,100072.88
2023-05-07T05:56:04.078Z,100064.03
2023-05-07T05:58:33.631Z,100074.75
2023-05-07T06:01:04.914Z,100072.56
2023-05-07T06:03:34.009Z,100076.97
2023-05-07T06:06:08.206Z,100077.22
2023-05-07T06:08:55.070Z,100081.69
2023-05-07T06:11:28.693Z,100080.94
2023-05-07T06:13:56.544Z,100084.63
2023-05-07T06:16:26.651Z,100081.38
2023-05-07T06:18:54.963Z,100084.34
2023-05-07T06:21:24.323Z,100084.63
2023-05-07T06:23:53.171Z,100084.03
2023-05-07T06:26:21.483Z,100087.72
2023-05-07T06:28:49.536Z,100092.03
2023-05-07T06:31:21.561Z,100095.75
2023-05-07T06:34:01.014Z,100095.31
2023-05-07T06:36:36.202Z,100096.91
2023-05-07T06:39:12.186Z,100097.28
2023-05-07T06:41:40.001Z,100090.44
2023-05-07T06:44:16.795Z,100093.59
2023-05-07T06:46:49.539Z,100096.00
2023-05-07T06:49:17.971Z,100093.44
2023-05-07T06:51:47.958Z,100090.06
2023-05-07T06:54:16.306Z,100089.63
2023-05-07T06:56:45.496Z,100092.16
2023-05-07T06:59:13.400Z,100091.09
2023-05-07T07:01:42.716Z,100089.97
2023-05-07T07:04:12.290Z,100085.84
2023-05-07T07:06:42.829Z,100099.97
2023-05-07T07:09:15.148Z,100098.16
2023-05-07T07:11:43.368Z,100094.44
2023-05-07T07:14:11.637Z,100091.63
2023-05-07T07:16:47.820Z,100100.50
2023-05-07T07:19:17.109Z,100092.81
2023-05-07T07:21:45.838Z,100092.91
2023-05-07T07:24:20.154Z,100096.63
2023-05-07T07:26:49.701Z,100100.66
2023-05-07T07:29:19.756Z,100099.63
2023-05-07T07:31:52.836Z,100112.16
2023-05-07T07:34:22.217Z,100104.88
2023-05-07T07:36:50.820Z,100109.00
2023-05-07T07:39:21.370Z,100111.31
2023-05-07T07:41:51.878Z,100119.19
2023-05-07T07:44:21.683Z,100115.19
2023-05-07T07:46:54.195Z,100116.72
2023-05-07T07:49:23.604Z,100123.53
2023-05-07T07:51:52.093Z,100126.22
2023-05-07T07:54:21.078Z,100125.22
2023-05-07T07:56:49.086Z,100127.16
2023-05-07T07:59:19.721Z,100126.50
2023-05-07T08:01:49.415Z,100118.94
2023-05-07T08:04:18.332Z,100133.25
2023-05-07T08:06:46.757Z,100132.72
2023-05-07T08:09:19.572Z,100133.75
2023-05-07T08:11:49.879Z,100127.53
2023-05-07T08:14:17.984Z,100129.00
2023-05-07T08:16:48.225Z,100124.66
2023-05-07T08:19:18.023Z,100127.44
2023-05-07T08:21:48.614Z,100112.38
2023-05-07T08:24:17.542Z,100108.44
2023-05-07T08:26:47.713Z,100115.94
2023-05-07T08:29:18.168Z,100116.34
2023-05-07T08:31:46.365Z,100121.09
2023-05-07T08:34:14.444Z,100117.31
2023-05-07T08:36:44.390Z,100117.50
2023-05-07T08:39:16.573Z,100121.81
2023-05-07T08:41:47.199Z,100121.66
2023-05-07T08:44:16.135Z,100123.31
2023-05-07T08:50:28.404Z,100122.97
2023-05-07T08:52:57.450Z,100123.13
2023-05-07T08:55:25.392Z,100123.59
2023-05-07T08:57:54.133Z,100129.63
2023-05-07T09:00:24.340Z,100128.06
2023-05-07T09:02:54.733Z,100130.06
2023-05-07T09:05:22.970Z,100143.47
2023-05-07T09:07:54.397Z,100138.81
2023-05-07T09:10:23.578Z,100136.13
2023-05-07T09:12:52.732Z,100139.63
2023-05-07T09:15:21.194Z,100132.25
2023-05-07T09:17:49.581Z,100142.13
2023-05-07T09:20:18.616Z,100139.66
2023-05-07T09:22:46.576Z,100137.53
2023-05-07T09:25:29.524Z,100146.03
2023-05-07T09:27:58.181Z,100133.31
2023-05-07T09:30:30.091Z,100136.41
2023-05-07T09:33:00.367Z,100135.13
2023-05-07T09:35:29.633Z,100134.00
2023-05-07T09:38:04.352Z,100139.69
2023-05-07T09:40:37.978Z,100129.50
2023-05-07T09:43:11.156Z,100138.41
2023-05-07T09:45:40.554Z,100137.09
2023-05-07T09:48:10.143Z,100147.84
2023-05-07T09:50:43.097Z,100138.88
2023-05-07T09:53:11.942Z,100130.34
2023-05-07T09:55:41.335Z,100129.34
2023-05-07T09:58:09.995Z,100125.94
2023-05-07T10:00:39.809Z,100138.88
2023-05-07T10:03:13.862Z,100126.78
2023-05-07T10:05:51.524Z,100134.88
2023-05-07T10:08:22.570Z,100131.13
2023-05-07T10:10:56.345Z,100125.38
2023-05-07T10:13:28.144Z,100113.22
2023-05-07T10:15:59.949Z,100122.88
2023-05-07T10:18:34.140Z,100117.34
2023-05-07T10:21:10.479Z,100113.78
2023-05-07T10:23:39.279Z,100118.53
2023-05-07T10:26:10.100Z,100117.97
2023-05-07T10:28:40.938Z,100117.06
2023-05-07T10:31:17.304Z,100120.81
2023-05-07T10:33:49.529Z,100116.97
2023-05-07T10:36:19.692Z,100111.38
2023-05-07T10:38:48.474Z,100112.34
2023-05-07T10:41:20.281Z,100122.91
2023-05-07T10:43:49.156Z,100129.75
2023-05-07T10:46:29.680Z,100138.75
2023-05-07T10:49:17.908Z,100134.78
2023-05-07T10:52:21.359Z,100132.09
2023-05-07T10:55:22.798Z,100116.81
2023-05-07T10:58:32.107Z,100116.44
2023-05-07T11:01:39.508Z,100106.75
2023-05-07T11:04:18.591Z,100099.56
2023-05-07T11:07:14.725Z,100094.03
2023-05-07T11:10:02.406Z,100096.66
2023-05-07T11:13:00.558Z,100093.41
2023-05-07T11:15:41.218Z,100088.81
2023-05-07T11:18:25.820Z,100078.19
2023-05-07T11:20:56.177Z,100080.28
2023-05-07T11:23:53.636Z,100083.81
2023-05-07T11:26:32.520Z,100085.34
2023-05-07T11:29:01.456Z,100095.50
2023-05-07T11:31:33.090Z,100098.09
2023-05-07T11:34:03.370Z,100092.22
2023-05-07T11:36:33.310Z,100093.22
2023-05-07T11:39:03.138Z,100092.59
2023-05-07T11:41:38.986Z,100095.50
2023-05-07T11:44:06.879Z,100095.19
2023-05-07T11:46:37.144Z,100083.38
2023-05-07T11:49:05.747Z,100084.72
2023-05-07T11:51:33.906Z,100079.53
2023-05-07T11:54:01.912Z,100082.28
2023-05-07T11:56:30.084Z,100076.16
2023-05-07T11:58:58.276Z,100086.41
2023-05-07T12:01:26.289Z,100079.94
2023-05-07T12:03:57.988Z,100075.75
2023-05-07T12:06:26.960Z,100072.25
2023-05-07T12:08:56.046Z,100080.72
2023-05-07T12:11:26.125Z,100073.75
2023-05-07T12:13:58.978Z,100075.69
2023-05-07T12:16:27.504Z,100072.56
2023-05-07T12:18:56.437Z,100067.06
2023-05-07T12:21:26.183Z,100063.34
2023-05-07T12:23:54.647Z,100062.28
2023-05-07T12:26:23.254Z,100063.94
2023-05-07T12:28:53.304Z,100074.31
2023-05-07T12:31:21.352Z,100077.06
2023-05-07T12:33:49.472Z,100077.66
2023-05-07T12:36:19.266Z,100074.66
2023-05-07T12:38:52.163Z,100073.78
2023-05-07T12:41:20.207Z,100075.97
2023-05-07T12:43:48.235Z,100086.19
2023-05-07T12:46:18.128Z,100074.34
2023-05-07T12:48:46.766Z,100075.56
2023-05-07T12:51:16.275Z,100068.41
2023-05-07T12:53:44.567Z,100074.63
2023-05-07T12:56:13.706Z,100065.34
2023-05-07T12:58:41.385Z,100060.84
2023-05-07T13:01:11.091Z,100055.38
2023-05-07T13:03:40.327Z,100056.53
2023-05-07T13:06:10.699Z,100049.91
2023-05-07T13:08:41.425Z,100047.31
2023-05-07T13:11:11.375Z,100039.28
2023-05-07T13:13:41.076Z,100040.50
2023-05-07T13:16:10.074Z,100037.50
2023-05-07T13:18:39.045Z,100035.09
2023-05-07T13:21:07.572Z,100034.16
2023-05-07T13:23:36.367Z,100031.16
2023-05-07T13:26:11.495Z,100031.38
2023-05-07T13:28:44.765Z,100032.09
2023-05-07T13:31:12.787Z,100029.53
2023-05-07T13:33:40.562Z,100020.84
2023-05-07T13:36:08.596Z,100020.69
2023-05-07T13:38:36.809Z,100014.16
2023-05-07T13:41:04.494Z,100026.09
2023-05-07T13:43:33.161Z,100024.56
2023-05-07T13:46:02.515Z,100030.88
2023-05-07T13:48:31.052Z,100011.81
2023-05-07T13:50:58.863Z,100010.97
2023-05-07T13:53:26.673Z,100017.63
2023-05-07T13:55:54.274Z,100014.59
2023-05-07T13:58:22.019Z,100008.16
2023-05-07T14:00:49.712Z,100010.84
2023-05-07T14:03:20.931Z,100018.53
2023-05-07T14:05:50.363Z,100021.13
2023-05-07T14:08:20.975Z,100015.03
2023-05-07T14:10:49.490Z,100014.84
2023-05-07T14:13:18.168Z,100007.28
2023-05-07T14:15:47.783Z,100010.09
2023-05-07T14:18:15.827Z,100005.16
2023-05-07T14:20:47.611Z,100003.44
2023-05-07T14:23:15.586Z,100000.50
2023-05-07T14:25:44.841Z,99981.09
2023-05-07T14:28:12.907Z,99986.69
2023-05-07T14:30:40.732Z,99990.09
2023-05-07T14:33:08.565Z,99995.78
2023-05-07T14:35:36.872Z,99994.59
2023-05-07T14:38:05.969Z,99989.81
2023-05-07T14:40:34.099Z,99983.19
2023-05-07T14:43:01.783Z,99980.16
2023-05-07T14:45:29.528Z,99982.69
2023-05-07T14:47:57.375Z,99983.59
2023-05-07T14:50:25.569Z,99988.97
2023-05-07T14:52:53.739Z,99982.06
2023-05-07T14:55:23.126Z,99991.28
2023-05-07T14:57:50.961Z,99997.09
2023-05-07T15:00:18.942Z,99996.09
2023-05-07T15:02:46.821Z,100001.09
2023-05-07T15:05:15.898Z,100007.34
2023-05-07T15:07:44.637Z,100014.78
2023-05-07T15:10:13.378Z,100015.22
2023-05-07T15:12:42.451Z,100015.47
2023-05-07T15:15:11.407Z,100016.69
2023-05-07T15:17:39.173Z,100027.16
2023-05-07T15:20:07.810Z,100025.41
2023-05-07T15:22:36.988Z,100030.97
2023-05-07T15:25:05.207Z,100029.53
2023-05-07T15:27:32.814Z,100029.69
2023-05-07T15:30:02.119Z,100034.38
2023-05-07T15:32:29.947Z,100034.25
2023-05-07T15:34:58.412Z,100035.00
2023-05-07T15:37:26.071Z,100037.19
2023-05-07T15:39:53.912Z,100031.56
2023-05-07T15:42:21.610Z,100034.56
2023-05-07T15:44:49.680Z,100038.44
2023-05-07T15:47:18.905Z,100042.03
2023-05-07T15:49:46.845Z,100035.06
2023-05-07T15:52:15.763Z,100048.44
2023-05-07T15:54:43.425Z,100041.50
2023-05-07T15:57:11.744Z,100049.25
2023-05-07T15:59:39.512Z,100053.41
2023-05-07T16:02:08.081Z,100054.75
2023-05-07T16:04:37.038Z,100063.53
2023-05-07T16:07:04.773Z,100078.25
2023-05-07T16:09:32.512Z,100075.41
2023-05-07T16:12:01.136Z,100079.41
2023-05-07T16:14:28.910Z,100079.25
2023-05-07T16:16:57.076Z,100069.56
2023-05-07T16:19:25.024Z,100059.56
2023-05-07T16:21:54.249Z,100066.22
2023-05-07T16:24:22.198Z,100059.63
2023-05-07T16:26:49.687Z,100065.00
2023-05-07T16:29:17.337Z,100062.56
2023-05-07T16:31:45.517Z,100069.19
2023-05-07T16:34:14.064Z,100073.97
2023-05-07T16:36:41.865Z,100078.72
2023-05-07T16:39:11.007Z,100081.84
2023-05-07T16:41:39.226Z,100075.41
2023-05-07T16:44:07.065Z,100087.31
2023-05-07T16:46:34.715Z,100091.19
2023-05-07T16:49:02.891Z,100093.56
2023-05-07T16:51:30.818Z,100105.03
2023-05-07T16:53:58.452Z,100099.94
2023-05-07T16:56:27.480Z,100097.47
2023-05-07T16:58:55.357Z,100099.38
2023-05-07T17:01:23.042Z,100099.81
2023-05-07T17:03:51.916Z,100097.47
2023-05-07T17:06:20.042Z,100094.13
2023-05-07T17:08:47.751Z,100101.03
2023-05-07T17:11:15.458Z,100089.44
2023-05-07T17:13:44.397Z,100093.16
2023-05-07T17:16:12.047Z,100099.22
2023-05-07T17:18:40.158Z,100095.94
2023-05-07T17:21:08.257Z,100098.00
2023-05-07T17:23:35.932Z,100111.09
2023-05-07T17:26:04.682Z,100106.53
2023-05-07T17:28:32.698Z,100121.59
2023-05-07T17:31:01.886Z,100119.94
2023-05-07T17:33:29.693Z,100123.53
2023-05-07T17:35:58.711Z,100137.19
2023-05-07T17:38:26.719Z,100136.34
2023-05-07T17:40:54.467Z,100149.63
2023-05-07T17:43:23.407Z,100148.78
2023-05-07T17:45:51.683Z,100151.25
2023-05-07T17:48:21.078Z,100151.38
2023-05-07T17:50:49.399Z,100157.34
2023-05-07T17:53:36.124Z,100155.94
2023-05-07T17:56:04.449Z,100168.38
2023-05-07T17:58:33.814Z,100177.22
2023-05-07T18:01:04.763Z,100182.47
2023-05-07T18:03:36.714Z,100183.28
2023-05-07T18:06:08.727Z,100180.81
2023-05-07T18:08:38.730Z,100181.22
2023-05-07T18:11:07.727Z,100181.13
2023-05-07T18:13:36.130Z,100183.84
2023-05-07T18:16:04.283Z,100180.09
2023-05-07T18:18:34.977Z,100176.69
2023-05-07T18:21:05.539Z,100177.31
2023-05-07T18:23:35.859Z,100174.28
2023-05-07T18:26:07.064Z,100182.84
2023-05-07T18:28:36.699Z,100178.28
2023-05-07T18:31:06.151Z,100176.66
2023-05-07T18:33:34.889Z,100188.25
2023-05-07T18:36:04.895Z,100184.78
2023-05-07T18:38:33.210Z,100192.78
2023-05-07T18:41:06.790Z,100188.06
2023-05-07T18:43:35.127Z,100189.84
2023-05-07T18:46:06.738Z,100187.34
2023-05-07T18:48:34.886Z,100183.19
2023-05-07T18:51:04.385Z,100186.06
2023-05-07T18:53:33.027Z,100191.88
2023-05-07T18:56:02.656Z,100184.56
2023-05-07T18:58:30.985Z,100193.00
2023-05-07T19:00:58.787Z,100190.41
2023-05-07T19:03:26.650Z,100187.84
2023-05-07T19:05:56.058Z,100180.53
2023-05-07T19:08:25.104Z,100183.56
2023-05-07T19:10:52.934Z,100186.44
2023-05-07T19:13:20.916Z,100187.59
2023-05-07T19:15:48.751Z,100191.59
2023-05-07T19:18:16.586Z,100192.19
2023-05-07T19:20:44.446Z,100198.00
2023-05-07T19:23:12.464Z,100208.50
2023-05-07T19:25:41.491Z,100216.16
2023-05-07T19:28:10.381Z,100219.59
2023-05-07T19:30:39.404Z,100218.69
2023-05-07T19:33:07.439Z,100217.91
2023-05-07T19:35:37.027Z,100211.66
2023-05-07T19:38:06.297Z,100216.75
2023-05-07T19:40:34.023Z,100210.94
2023-05-07T19:43:04.487Z,100213.09
2023-05-07T19:45:32.591Z,100216.97
2023-05-07T19:48:00.580Z,100222.47
2023-05-07T19:50:28.566Z,100222.47
2023-05-07T19:52:56.454Z,100223.72
2023-05-07T19:55:24.368Z,100226.41
2023-05-07T19:57:52.046Z,100235.28
2023-05-07T20:00:22.045Z,100239.88
2023-05-07T20:02:51.417Z,100227.56
2023-05-07T20:05:18.975Z,100237.03
2023-05-07T20:07:46.957Z,100236.75
2023-05-07T20:10:15.167Z,100254.19
2023-05-07T20:12:43.105Z,100260.97
2023-05-07T20:15:12.024Z,100281.63
2023-05-07T20:17:41.354Z,100285.34
2023-05-07T20:20:09.526Z,100290.06
2023-05-07T20:22:37.667Z,100289.34
2023-05-07T20:25:06.171Z,100285.06
2023-05-07T20:27:35.088Z,100290.25
2023-05-07T20:30:02.990Z,100295.09
2023-05-07T20:32:30.907Z,100299.69
2023-05-07T20:35:00.063Z,100302.97
2023-05-07T20:37:29.464Z,100312.63
2023-05-07T20:39:57.715Z,100311.25
2023-05-07T20:42:26.335Z,100322.28
2023-05-07T20:44:54.100Z,100323.09
2023-05-07T20:47:21.940Z,100336.69
2023-05-07T20:49:50.535Z,100334.06
2023-05-07T20:52:19.994Z,100336.53
2023-05-07T20:54:50.011Z,100328.66
2023-05-07T20:57:19.499Z,100332.50
2023-05-07T20:59:47.227Z,100334.41
2023-05-07T21:02:14.958Z,100321.63
2023-05-07T21:04:43.131Z,100327.63
2023-05-07T21:07:10.922Z,100331.34
2023-05-07T21:09:40.234Z,100332.03
2023-05-07T21:12:08.491Z,100334.03
2023-05-07T21:14:37.251Z,100330.78
2023-05-07T21:17:07.292Z,100336.84
2023-05-07T21:19:35.342Z,100338.31
2023-05-07T21:22:04.252Z,100329.94
2023-05-07T21:24:32.037Z,100328.25
2023-05-07T21:27:01.793Z,100337.38
2023-05-07T21:29:29.777Z,100336.31
2023-05-07T21:31:57.628Z,100338.69
2023-05-07T21:34:25.598Z,100341.88
2023-05-07T21:36:53.326Z,100344.16
2023-05-07T21:39:22.935Z,100350.94
2023-05-07T21:41:51.719Z,100340.00
2023-05-07T21:44:21.492Z,100352.19
2023-05-07T21:46:49.486Z,100346.88
2023-05-07T21:49:20.168Z,100348.34
2023-05-07T21:51:48.306Z,100346.06
2023-05-07T21:54:17.218Z,100348.53
2023-05-07T21:56:46.341Z,100342.97
2023-05-07T21:59:15.396Z,100339.78
2023-05-07T22:01:46.025Z,100339.31
2023-05-07T22:04:13.958Z,100334.09
2023-05-07T22:06:44.462Z,100341.63
2023-05-07T22:09:12.952Z,100334.16
2023-05-07T22:11:41.213Z,100336.84
2023-05-07T22:14:09.259Z,100338.50
2023-05-07T22:16:37.500Z,100347.31
2023-05-07T22:19:06.969Z,100349.88
2023-05-07T22:21:35.765Z,100346.94
2023-05-07T22:24:07.030Z,100346.16
2023-05-07T22:26:35.332Z,100358.59
2023-05-07T22:29:03.195Z,100356.34
2023-05-07T22:31:31.228Z,100364.41
2023-05-07T22:33:59.314Z,100353.56
2023-05-07T22:36:28.506Z,100363.38
2023-05-07T22:38:56.294Z,100360.59
2023-05-07T22:41:24.710Z,100363.31
2023-05-07T22:43:52.972Z,100364.56
2023-05-07T22:46:20.587Z,100359.78
2023-05-07T22:48:48.385Z,100362.88
2023-05-07T22:51:16.253Z,100377.66
2023-05-07T22:53:46.680Z,100367.63
2023-05-07T22:56:14.521Z,100359.66
2023-05-07T22:58:42.389Z,100350.34
2023-05-07T23:01:14.652Z,100356.13
2023-05-07T23:03:43.286Z,100343.28
2023-05-07T23:06:11.511Z,100348.91
2023-05-07T23:08:41.624Z,100352.03
2023-05-07T23:11:11.150Z,100353.63
2023-05-07T23:13:39.250Z,100342.69
2023-05-07T23:16:07.507Z,100346.97
2023-05-07T23:18:36.207Z,100357.50
2023-05-07T23:21:04.379Z,100353.13
2023-05-07T23:23:35.044Z,100362.50
2023-05-07T23:26:03.197Z,100365.03
2023-05-07T23:28:32.550Z,100367.16
2023-05-07T23:31:01.107Z,100370.16
2023-05-07T23:33:29.016Z,100366.34
2023-05-07T23:36:01.125Z,100369.56
2023-05-07T23:38:29.372Z,100374.66
2023-05-07T23:40:57.390Z,100365.13
2023-05-07T23:43:25.723Z,100365.50
2023-05-07T23:45:55.083Z,100369.66
2023-05-07T23:48:23.823Z,100373.38
2023-05-07T23:50:51.802Z,100381.84
2023-05-07T23:53:20.651Z,100381.31
2023-05-07T23:55:48.637Z,100377.56
2023-05-07T23:58:17.248Z,100381.50
